createdAt,value
2022-09-28T00:02:00.467Z,14.33
2022-09-28T00:04:27.654Z,13.10
2022-09-28T00:06:54.358Z,11.93
2022-09-28T00:09:21.049Z,13.03
2022-09-28T00:11:47.692Z,13.57
2022-09-28T00:14:14.497Z,12.07
2022-09-28T00:16:43.976Z,13.10
2022-09-28T00:19:12.359Z,13.70
2022-09-28T00:21:41.236Z,15.07
2022-09-28T00:24:22.994Z,16.27
2022-09-28T00:26:56.851Z,18.37
2022-09-28T00:29:32.021Z,13.17
2022-09-28T00:32:02.610Z,12.73
2022-09-28T00:34:35.183Z,13.23
2022-09-28T00:37:03.953Z,15.40
2022-09-28T00:39:31.789Z,14.13
2022-09-28T00:41:59.799Z,13.27
2022-09-28T00:44:26.362Z,15.03
2022-09-28T00:47:19.816Z,15.47
2022-09-28T00:49:54.985Z,14.07
2022-09-28T00:52:53.267Z,13.23
2022-09-28T00:55:26.998Z,14.40
2022-09-28T00:57:58.301Z,22.03
2022-09-28T01:00:25.046Z,12.53
2022-09-28T01:02:51.679Z,13.77
2022-09-28T01:05:20.585Z,12.70
2022-09-28T01:07:47.987Z,15.27
2022-09-28T01:10:15.378Z,14.70
2022-09-28T01:12:42.203Z,16.33
2022-09-28T01:15:09.632Z,15.23
2022-09-28T01:17:44.886Z,14.33
2022-09-28T01:20:41.151Z,10.87
2022-09-28T01:23:26.530Z,12.30
2022-09-28T01:26:25.424Z,12.20
2022-09-28T01:29:04.843Z,10.23
2022-09-28T01:31:34.309Z,12.33
2022-09-28T01:34:10.558Z,12.20
2022-09-28T01:36:48.722Z,8.37
2022-09-28T01:39:20.357Z,9.17
2022-09-28T01:41:51.571Z,10.70
2022-09-28T01:44:21.717Z,11.97
2022-09-28T01:46:49.872Z,12.37
2022-09-28T01:49:19.191Z,8.07
2022-09-28T01:51:55.546Z,10.20
2022-09-28T01:54:32.466Z,9.00
2022-09-28T01:57:09.631Z,9.77
2022-09-28T01:59:39.660Z,11.23
2022-09-28T02:02:22.631Z,6.70
2022-09-28T02:04:56.322Z,6.83
2022-09-28T02:07:38.794Z,8.20
2022-09-28T02:10:14.542Z,7.17
2022-09-28T02:12:47.237Z,5.50
2022-09-28T02:15:27.658Z,8.17
2022-09-28T02:17:54.887Z,8.07
2022-09-28T02:20:23.934Z,8.87
2022-09-28T02:22:56.772Z,7.77
2022-09-28T02:25:34.747Z,11.83
2022-09-28T02:28:08.383Z,6.80
2022-09-28T02:30:38.293Z,9.40
2022-09-28T02:33:13.721Z,7.80
2022-09-28T02:35:42.702Z,10.33
2022-09-28T02:38:14.084Z,6.53
2022-09-28T02:40:46.006Z,6.97
2022-09-28T02:43:23.636Z,6.90
2022-09-28T02:46:02.205Z,6.17
2022-09-28T02:48:43.643Z,8.40
2022-09-28T02:51:23.007Z,6.83
2022-09-28T02:54:26.276Z,10.17
2022-09-28T02:56:56.146Z,10.37
2022-09-28T03:00:01.259Z,7.27
2022-09-28T03:02:36.049Z,5.03
2022-09-28T03:05:29.391Z,7.50
2022-09-28T03:08:06.934Z,8.47
2022-09-28T03:11:03.224Z,10.07
2022-09-28T03:13:30.955Z,6.60
2022-09-28T03:16:16.150Z,6.63
2022-09-28T03:18:43.162Z,6.73
2022-09-28T03:21:12.086Z,4.97
2022-09-28T03:23:39.414Z,6.80
2022-09-28T03:26:08.368Z,5.87
2022-09-28T03:28:36.338Z,5.40
2022-09-28T03:31:03.097Z,5.57
2022-09-28T03:33:29.744Z,6.33
2022-09-28T03:35:56.329Z,6.43
2022-09-28T03:38:22.945Z,6.27
2022-09-28T03:41:00.845Z,7.97
2022-09-28T03:43:28.401Z,8.47
2022-09-28T03:45:56.478Z,7.30
2022-09-28T03:48:32.100Z,7.33
2022-09-28T03:51:02.163Z,5.37
2022-09-28T03:53:29.803Z,8.07
2022-09-28T03:55:56.850Z,4.80
2022-09-28T03:58:23.536Z,5.07
2022-09-28T04:00:51.518Z,6.30
2022-09-28T04:03:18.150Z,5.63
2022-09-28T04:05:52.592Z,6.47
2022-09-28T04:08:19.804Z,5.77
2022-09-28T04:10:47.217Z,8.37
2022-09-28T04:13:14.382Z,8.10
2022-09-28T04:15:41.081Z,6.20
2022-09-28T04:18:12.130Z,7.07
2022-09-28T04:20:41.572Z,5.90
2022-09-28T04:23:08.846Z,5.93
2022-09-28T04:25:39.748Z,8.30
2022-09-28T04:28:25.066Z,5.67
2022-09-28T04:30:51.714Z,4.37
2022-09-28T04:33:18.346Z,4.20
2022-09-28T04:35:45.055Z,4.10
2022-09-28T04:38:11.647Z,5.03
2022-09-28T04:40:38.284Z,7.47
2022-09-28T04:43:04.930Z,6.20
2022-09-28T04:45:31.571Z,3.67
2022-09-28T04:47:58.192Z,5.70
2022-09-28T04:50:24.775Z,5.10
2022-09-28T04:52:51.366Z,5.63
2022-09-28T04:55:17.987Z,5.40
2022-09-28T04:57:44.591Z,4.23
2022-09-28T05:00:11.831Z,7.63
2022-09-28T05:02:39.167Z,7.17
2022-09-28T05:05:06.323Z,6.73
2022-09-28T05:07:32.927Z,10.93
2022-09-28T05:10:01.613Z,4.73
2022-09-28T05:12:28.208Z,4.07
2022-09-28T05:14:54.779Z,5.17
2022-09-28T05:17:21.419Z,4.53
2022-09-28T05:19:48.066Z,5.57
2022-09-28T05:22:15.181Z,5.97
2022-09-28T05:24:41.847Z,6.80
2022-09-28T05:27:08.744Z,5.90
2022-09-28T05:29:35.380Z,6.30
2022-09-28T05:32:02.131Z,6.90
2022-09-28T05:34:29.034Z,6.17
2022-09-28T05:36:58.677Z,5.10
2022-09-28T05:39:25.296Z,4.13
2022-09-28T05:41:51.928Z,6.07
2022-09-28T05:44:21.246Z,4.47
2022-09-28T05:46:47.841Z,4.90
2022-09-28T05:49:17.427Z,6.70
2022-09-28T05:51:44.087Z,4.63
2022-09-28T05:54:10.767Z,6.27
2022-09-28T05:56:37.393Z,7.13
2022-09-28T05:59:08.597Z,4.33
2022-09-28T06:01:35.308Z,6.07
2022-09-28T06:04:03.759Z,7.00
2022-09-28T06:06:30.353Z,3.60
2022-09-28T06:08:56.961Z,6.53
2022-09-28T06:11:28.176Z,2.93
2022-09-28T06:13:58.184Z,9.77
2022-09-28T06:16:25.729Z,4.67
2022-09-28T06:18:55.292Z,7.83
2022-09-28T06:21:25.145Z,4.50
2022-09-28T06:23:53.768Z,5.63
2022-09-28T06:26:20.382Z,5.43
2022-09-28T06:28:47.235Z,3.43
2022-09-28T06:31:16.797Z,6.40
2022-09-28T06:33:43.468Z,8.30
2022-09-28T06:36:13.497Z,4.00
2022-09-28T06:38:40.151Z,4.20
2022-09-28T06:41:07.063Z,9.47
2022-09-28T06:43:35.213Z,5.57
2022-09-28T06:46:02.774Z,3.77
2022-09-28T06:48:29.746Z,3.87
2022-09-28T06:50:56.699Z,3.10
2022-09-28T06:53:27.583Z,6.10
2022-09-28T06:55:56.182Z,4.93
2022-09-28T06:58:23.309Z,9.73
2022-09-28T07:00:53.543Z,4.60
2022-09-28T07:03:22.280Z,5.03
2022-09-28T07:05:54.108Z,5.37
2022-09-28T07:08:26.067Z,5.57
2022-09-28T07:10:56.878Z,4.17
2022-09-28T07:13:46.723Z,4.97
2022-09-28T07:16:14.031Z,3.33
2022-09-28T07:18:42.240Z,6.07
2022-09-28T07:21:23.582Z,7.13
2022-09-28T07:23:54.498Z,4.90
2022-09-28T07:26:24.074Z,7.07
2022-09-28T07:28:55.907Z,2.33
2022-09-28T07:31:25.261Z,3.27
2022-09-28T07:33:52.047Z,3.43
2022-09-28T07:36:21.142Z,2.63
2022-09-28T07:38:48.077Z,3.63
2022-09-28T07:41:17.075Z,4.07
2022-09-28T07:43:43.935Z,7.90
2022-09-28T07:46:13.611Z,2.90
2022-09-28T07:48:45.892Z,3.43
2022-09-28T07:51:12.851Z,2.63
2022-09-28T07:53:41.711Z,5.07
2022-09-28T07:56:09.512Z,3.80
2022-09-28T07:58:38.138Z,3.40
2022-09-28T08:01:11.936Z,1.93
2022-09-28T08:03:42.492Z,4.67
2022-09-28T08:06:13.345Z,4.93
2022-09-28T08:08:44.663Z,2.30
2022-09-28T08:11:18.830Z,4.27
2022-09-28T08:13:46.546Z,4.07
2022-09-28T08:16:13.681Z,3.97
2022-09-28T08:18:40.437Z,1.13
2022-09-28T08:21:30.082Z,3.83
2022-09-28T08:23:56.726Z,3.10
2022-09-28T08:26:23.330Z,1.40
2022-09-28T08:28:52.559Z,4.33
2022-09-28T08:31:19.250Z,2.03
2022-09-28T08:33:45.912Z,1.40
2022-09-28T08:36:12.760Z,4.67
2022-09-28T08:38:42.617Z,4.03
2022-09-28T08:41:36.797Z,4.70
2022-09-28T08:44:15.958Z,5.63
2022-09-28T08:46:47.805Z,3.17
2022-09-28T08:49:34.703Z,7.33
2022-09-28T08:52:19.387Z,3.63
2022-09-28T08:55:20.915Z,4.00
2022-09-28T08:58:15.351Z,5.53
2022-09-28T09:00:51.406Z,3.20
2022-09-28T09:03:37.765Z,6.83
2022-09-28T09:06:10.306Z,5.70
2022-09-28T09:08:36.901Z,2.03
2022-09-28T09:11:27.061Z,3.50
2022-09-28T09:13:59.553Z,2.53
2022-09-28T09:17:10.041Z,4.07
2022-09-28T09:19:53.525Z,2.80
2022-09-28T09:22:33.236Z,2.27
2022-09-28T09:25:28.223Z,2.77
2022-09-28T09:28:31.729Z,5.17
2022-09-28T09:31:08.620Z,4.03
2022-09-28T09:34:03.435Z,2.17
2022-09-28T09:36:35.801Z,2.90
2022-09-28T09:39:24.158Z,5.83
2022-09-28T09:42:11.057Z,4.37
2022-09-28T09:44:47.246Z,1.97
2022-09-28T09:47:20.964Z,3.57
2022-09-28T09:50:13.593Z,3.73
2022-09-28T09:52:55.300Z,2.33
2022-09-28T09:55:40.754Z,3.37
2022-09-28T09:58:16.338Z,2.90
2022-09-28T10:00:47.311Z,2.87
2022-09-28T10:03:22.266Z,2.83
2022-09-28T10:05:57.921Z,2.40
2022-09-28T10:08:27.201Z,3.23
2022-09-28T10:11:08.673Z,3.80
2022-09-28T10:13:35.488Z,1.80
2022-09-28T10:16:02.575Z,3.90
2022-09-28T10:18:29.817Z,3.00
2022-09-28T10:20:56.405Z,1.90
2022-09-28T10:23:25.564Z,2.73
2022-09-28T10:25:56.889Z,11.67
2022-09-28T10:28:34.589Z,2.10
2022-09-28T10:31:21.175Z,3.03
2022-09-28T10:33:47.768Z,2.27
2022-09-28T10:36:16.167Z,5.07
2022-09-28T10:38:47.817Z,3.47
2022-09-28T10:41:16.672Z,2.00
2022-09-28T10:44:06.844Z,3.73
2022-09-28T10:46:35.347Z,2.33
2022-09-28T10:49:12.020Z,2.20
2022-09-28T10:51:51.706Z,3.47
2022-09-28T10:54:24.026Z,5.40
2022-09-28T10:56:52.672Z,2.37
2022-09-28T10:59:31.415Z,3.40
2022-09-28T11:02:19.867Z,4.47
2022-09-28T11:04:53.182Z,3.20
2022-09-28T11:07:26.485Z,3.87
2022-09-28T11:09:54.854Z,3.30
2022-09-28T11:12:45.521Z,2.13
2022-09-28T11:15:19.334Z,2.73
2022-09-28T11:17:46.309Z,5.33
2022-09-28T11:20:27.833Z,2.47
2022-09-28T11:23:00.648Z,3.60
2022-09-28T11:25:29.365Z,3.57
2022-09-28T11:27:59.180Z,4.43
2022-09-28T11:30:32.938Z,2.63
2022-09-28T11:33:33.030Z,1.60
2022-09-28T11:36:14.808Z,2.43
2022-09-28T11:38:47.485Z,1.80
2022-09-28T11:41:46.462Z,1.60
2022-09-28T11:44:17.812Z,1.70
2022-09-28T11:47:11.899Z,3.17
2022-09-28T11:50:10.554Z,1.87
2022-09-28T11:52:48.270Z,3.47
2022-09-28T11:55:27.242Z,3.13
2022-09-28T11:58:02.057Z,2.73
2022-09-28T12:00:31.183Z,2.73
2022-09-28T12:03:09.438Z,4.17
2022-09-28T12:06:13.806Z,2.03
2022-09-28T12:08:47.317Z,2.00
2022-09-28T12:11:27.711Z,1.97
2022-09-28T12:13:59.049Z,1.50
2022-09-28T12:19:49.207Z,7.07
2022-09-28T12:22:24.352Z,2.13
2022-09-28T12:24:54.518Z,1.67
2022-09-28T12:27:34.413Z,3.60
2022-09-28T12:30:19.395Z,2.53
2022-09-28T12:32:52.246Z,3.37
2022-09-28T12:35:53.393Z,3.00
2022-09-28T12:39:18.090Z,1.57
2022-09-28T12:41:55.938Z,3.67
2022-09-28T12:44:32.809Z,1.60
2022-09-28T12:47:33.442Z,1.67
2022-09-28T12:53:07.892Z,2.10
2022-09-28T12:55:37.216Z,2.63
2022-09-28T12:58:29.668Z,6.73
2022-09-28T13:01:24.223Z,2.30
2022-09-28T13:04:29.031Z,3.43
2022-09-28T13:07:27.340Z,1.10
2022-09-28T13:10:16.982Z,5.33
2022-09-28T13:12:58.045Z,2.03
2022-09-28T13:15:24.896Z,5.43
2022-09-28T13:18:11.014Z,2.20
2022-09-28T13:21:17.462Z,2.27
2022-09-28T13:23:47.343Z,2.17
2022-09-28T13:26:31.807Z,1.40
2022-09-28T13:29:05.111Z,2.67
2022-09-28T13:31:36.015Z,2.07
2022-09-28T13:34:05.150Z,2.23
2022-09-28T13:36:31.787Z,1.37
2022-09-28T13:39:00.172Z,2.43
2022-09-28T13:41:40.443Z,1.23
2022-09-28T13:44:13.267Z,1.67
2022-09-28T13:46:55.905Z,1.77
2022-09-28T13:49:41.185Z,2.00
2022-09-28T13:52:28.015Z,2.87
2022-09-28T13:55:15.783Z,0.90
2022-09-28T13:58:14.646Z,2.20
2022-09-28T14:00:53.660Z,3.67
2022-09-28T14:03:57.278Z,1.17
2022-09-28T14:06:27.064Z,1.40
2022-09-28T14:09:18.640Z,1.63
2022-09-28T14:11:56.304Z,4.33
2022-09-28T14:14:49.196Z,1.43
2022-09-28T14:17:21.680Z,0.77
2022-09-28T14:20:14.824Z,1.73
2022-09-28T14:22:50.475Z,1.67
2022-09-28T14:25:27.220Z,1.10
2022-09-28T14:27:53.766Z,1.07
2022-09-28T14:30:41.498Z,1.47
2022-09-28T14:33:28.945Z,0.70
2022-09-28T14:36:08.756Z,0.97
2022-09-28T14:39:08.762Z,1.07
2022-09-28T14:41:41.865Z,2.30
2022-09-28T14:44:14.411Z,1.00
2022-09-28T14:46:48.150Z,0.90
2022-09-28T14:49:17.647Z,1.50
2022-09-28T14:52:02.218Z,2.07
2022-09-28T14:54:45.470Z,1.00
2022-09-28T14:57:23.935Z,1.43
2022-09-28T14:59:50.861Z,1.70
2022-09-28T15:02:23.357Z,3.03
2022-09-28T15:04:54.960Z,2.13
2022-09-28T15:07:43.475Z,2.60
2022-09-28T15:10:42.126Z,1.50
2022-09-28T15:13:29.444Z,1.30
2022-09-28T15:16:10.022Z,1.20
2022-09-28T15:19:06.237Z,1.40
2022-09-28T15:21:36.579Z,0.97
2022-09-28T15:24:03.446Z,5.60
2022-09-28T15:26:33.041Z,1.10
2022-09-28T15:29:03.323Z,1.33
2022-09-28T15:31:34.870Z,2.17
2022-09-28T15:34:20.259Z,3.67
2022-09-28T15:36:47.346Z,2.13
2022-09-28T15:39:34.803Z,1.03
2022-09-28T15:42:02.509Z,1.90
2022-09-28T15:44:37.187Z,1.53
2022-09-28T15:47:11.133Z,1.80
2022-09-28T15:49:39.070Z,1.87
2022-09-28T15:52:06.076Z,6.63
2022-09-28T15:54:42.694Z,1.87
2022-09-28T15:57:38.717Z,2.17
2022-09-28T16:00:23.067Z,2.90
2022-09-28T16:03:00.509Z,1.20
2022-09-28T16:05:59.147Z,2.00
2022-09-28T16:08:49.085Z,5.50
2022-09-28T16:11:15.707Z,2.47
2022-09-28T16:14:19.518Z,2.13
2022-09-28T16:16:51.796Z,4.23
2022-09-28T16:19:36.600Z,3.27
2022-09-28T16:22:13.572Z,2.67
2022-09-28T16:24:40.288Z,3.00
2022-09-28T16:27:41.494Z,2.13
2022-09-28T16:30:16.730Z,2.50
2022-09-28T16:32:49.973Z,5.50
2022-09-28T16:35:21.654Z,3.40
2022-09-28T16:37:56.582Z,3.90
2022-09-28T16:40:23.304Z,4.10
2022-09-28T16:42:52.471Z,5.03
2022-09-28T16:45:25.867Z,4.27
2022-09-28T16:47:56.449Z,3.43
2022-09-28T16:50:24.595Z,2.57
2022-09-28T16:53:18.337Z,3.53
2022-09-28T16:55:46.720Z,6.37
2022-09-28T16:58:13.403Z,7.13
2022-09-28T17:00:43.590Z,3.43
2022-09-28T17:03:20.593Z,3.40
2022-09-28T17:05:48.143Z,2.67
2022-09-28T17:08:17.571Z,4.60
2022-09-28T17:11:14.048Z,3.43
2022-09-28T17:13:42.659Z,6.93
2022-09-28T17:16:17.977Z,5.07
2022-09-28T17:18:46.065Z,6.77
2022-09-28T17:21:19.386Z,7.67
2022-09-28T17:23:49.550Z,3.87
2022-09-28T17:26:27.823Z,4.50
2022-09-28T17:28:54.523Z,6.30
2022-09-28T17:31:21.139Z,3.20
2022-09-28T17:33:47.813Z,4.47
2022-09-28T17:36:17.203Z,6.77
2022-09-28T17:38:45.337Z,5.60
2022-09-28T17:41:19.376Z,7.97
2022-09-28T17:43:47.528Z,4.13
2022-09-28T17:46:36.251Z,3.70
2022-09-28T17:49:04.969Z,5.40
2022-09-28T17:51:34.895Z,6.00
2022-09-28T17:54:02.019Z,8.47
2022-09-28T17:56:32.198Z,9.00
2022-09-28T17:59:01.596Z,5.20
2022-09-28T18:01:33.975Z,4.10
2022-09-28T18:04:02.702Z,3.00
2022-09-28T18:06:29.459Z,6.83
2022-09-28T18:08:56.136Z,3.23
2022-09-28T18:11:22.990Z,7.07
2022-09-28T18:13:49.830Z,5.40
2022-09-28T18:16:17.609Z,5.47
2022-09-28T18:18:44.574Z,5.43
2022-09-28T18:21:11.249Z,7.10
2022-09-28T18:23:38.945Z,7.70
2022-09-28T18:26:12.068Z,4.13
2022-09-28T18:28:39.469Z,12.30
2022-09-28T18:31:10.998Z,11.10
2022-09-28T18:33:37.987Z,5.73
2022-09-28T18:36:08.690Z,6.70
2022-09-28T18:38:36.341Z,8.67
2022-09-28T18:41:17.252Z,5.20
2022-09-28T18:43:49.228Z,5.57
2022-09-28T18:46:18.303Z,5.87
2022-09-28T18:48:45.243Z,6.50
2022-09-28T18:51:12.466Z,6.60
2022-09-28T18:53:39.863Z,6.00
2022-09-28T18:56:11.779Z,7.20
2022-09-28T18:58:42.099Z,7.03
2022-09-28T19:01:29.573Z,6.77
2022-09-28T19:04:02.061Z,5.47
2022-09-28T19:06:29.186Z,6.23
2022-09-28T19:08:56.744Z,5.73
2022-09-28T19:11:24.726Z,5.60
2022-09-28T19:13:53.619Z,7.47
2022-09-28T19:16:35.610Z,4.80
2022-09-28T19:19:03.352Z,5.07
2022-09-28T19:21:30.511Z,5.03
2022-09-28T19:24:00.713Z,7.80
2022-09-28T19:26:28.615Z,5.73
2022-09-28T19:28:56.797Z,4.80
2022-09-28T19:31:24.634Z,6.17
2022-09-28T19:33:51.666Z,4.47
2022-09-28T19:36:22.497Z,6.33
2022-09-28T19:38:50.186Z,6.77
2022-09-28T19:41:39.389Z,10.23
2022-09-28T19:44:25.045Z,6.40
2022-09-28T19:46:59.487Z,6.03
2022-09-28T19:49:27.926Z,5.57
2022-09-28T19:52:12.884Z,7.43
2022-09-28T19:54:41.211Z,7.60
2022-09-28T19:57:08.791Z,4.87
2022-09-28T19:59:38.936Z,5.23
2022-09-28T20:02:07.246Z,4.13
2022-09-28T20:04:34.230Z,5.40
2022-09-28T20:07:01.138Z,5.90
2022-09-28T20:09:27.764Z,5.57
2022-09-28T20:11:54.454Z,5.13
2022-09-28T20:14:23.392Z,7.40
2022-09-28T20:16:52.798Z,7.37
2022-09-28T20:19:21.652Z,5.63
2022-09-28T20:21:49.171Z,6.03
2022-09-28T20:24:19.602Z,7.50
2022-09-28T20:27:00.601Z,5.83
2022-09-28T20:29:27.291Z,6.37
2022-09-28T20:31:53.893Z,8.47
2022-09-28T20:34:20.584Z,4.87
2022-09-28T20:36:57.949Z,7.90
2022-09-28T20:39:24.692Z,4.60
2022-09-28T20:41:51.759Z,4.57
2022-09-28T20:44:18.466Z,5.00
2022-09-28T20:46:45.320Z,6.57
2022-09-28T20:49:12.005Z,5.27
2022-09-28T20:51:38.669Z,7.37
2022-09-28T20:54:05.418Z,4.83
2022-09-28T20:56:39.605Z,5.87
2022-09-28T20:59:11.907Z,8.13
2022-09-28T21:01:40.191Z,6.87
2022-09-28T21:04:09.010Z,5.40
2022-09-28T21:06:38.200Z,5.37
2022-09-28T21:09:06.483Z,7.30
2022-09-28T21:11:35.776Z,7.63
2022-09-28T21:14:06.059Z,5.07
2022-09-28T21:16:34.387Z,5.40
2022-09-28T21:19:01.038Z,5.57
2022-09-28T21:21:28.260Z,5.17
2022-09-28T21:23:56.640Z,6.33
2022-09-28T21:26:25.576Z,5.33
2022-09-28T21:28:57.526Z,6.00
2022-09-28T21:31:29.577Z,6.70
2022-09-28T21:33:57.543Z,5.03
2022-09-28T21:36:25.011Z,4.20
2022-09-28T21:38:51.703Z,4.67
2022-09-28T21:41:18.398Z,5.93
2022-09-28T21:43:45.667Z,5.70
2022-09-28T21:46:12.527Z,5.10
2022-09-28T21:48:41.825Z,6.77
2022-09-28T21:51:15.862Z,6.13
2022-09-28T21:53:42.889Z,3.93
2022-09-28T21:56:15.068Z,5.67
2022-09-28T21:58:41.697Z,3.63
2022-09-28T22:01:20.172Z,2.87
2022-09-28T22:03:50.575Z,4.10
2022-09-28T22:06:19.837Z,4.57
2022-09-28T22:08:54.959Z,4.37
2022-09-28T22:11:23.943Z,4.00
2022-09-28T22:13:53.860Z,5.10
2022-09-28T22:16:26.667Z,7.43
2022-09-28T22:18:56.735Z,4.23
2022-09-28T22:21:32.053Z,5.23
2022-09-28T22:24:07.981Z,4.23
2022-09-28T22:26:36.813Z,3.13
2022-09-28T22:29:08.808Z,3.53
2022-09-28T22:31:38.097Z,4.10
2022-09-28T22:34:05.979Z,4.03
2022-09-28T22:36:33.065Z,4.37
2022-09-28T22:39:03.067Z,3.40
2022-09-28T22:41:30.086Z,3.80
2022-09-28T22:43:59.280Z,4.30
2022-09-28T22:46:28.531Z,2.80
2022-09-28T22:48:57.507Z,2.37
2022-09-28T22:51:25.745Z,4.40
2022-09-28T22:53:52.514Z,3.17
2022-09-28T22:56:19.458Z,8.43
2022-09-28T22:58:46.681Z,3.57
2022-09-28T23:01:18.711Z,6.17
2022-09-28T23:03:45.806Z,3.27
2022-09-28T23:06:16.680Z,8.10
2022-09-28T23:08:47.473Z,2.07
2022-09-28T23:11:14.980Z,3.20
2022-09-28T23:13:52.004Z,3.33
2022-09-28T23:16:19.438Z,6.20
2022-09-28T23:18:46.203Z,3.47
2022-09-28T23:21:17.727Z,2.37
2022-09-28T23:23:46.076Z,2.10
2022-09-28T23:26:18.431Z,1.93
2022-09-28T23:28:45.530Z,1.93
2022-09-28T23:31:17.614Z,3.10
2022-09-28T23:33:44.692Z,2.37
2022-09-28T23:36:14.253Z,2.70
2022-09-28T23:38:41.276Z,3.40
2022-09-28T23:41:10.527Z,3.73
2022-09-28T23:43:37.289Z,3.43
2022-09-28T23:46:05.005Z,2.83
2022-09-28T23:48:32.291Z,2.00
2022-09-28T23:50:59.051Z,4.50
2022-09-28T23:53:25.823Z,3.63
2022-09-28T23:55:52.566Z,2.70
2022-09-28T23:58:19.202Z,2.50
